DLH22EL EDDS-EDDF
Flight info
| Callsign | DLH22EL |
|---|---|
| Flight time | 0h 30m |
| Altitude | 17000 |
| Route | ETASA2H ETASA T163 SPESA SPESA4B |
| Aircraft | A320/M-SDE3FGHIRWY/LB1 |
Departure
| Time | 2026-05-07 16:13 |
|---|---|
| Airport | Stuttgart Airport (EDDS) |
Arrival
| Time | 2026-05-07 16:44 |
|---|---|
| Airport | Frankfurt Main Airport (EDDF) |
| Time | Latitude | Longitude | Altitude | Speed | Heading |
|---|---|---|---|---|---|
| 2026-05-07 15:58 | 48.68964 | 9.20358 | 1283 ft | 0 kts | 163° |
| 2026-05-07 15:58 | 48.68969 | 9.20356 | 1282 ft | 0 kts | 163° |
| 2026-05-07 16:07 | 48.68965 | 9.20358 | 1306 ft | 5 kts | 163° |
| 2026-05-07 16:07 | 48.68928 | 9.20377 | 1306 ft | 5 kts | 159° |
| 2026-05-07 16:07 | 48.68924 | 9.20479 | 1305 ft | 17 kts | 74° |
| 2026-05-07 16:07 | 48.68959 | 9.20653 | 1301 ft | 19 kts | 75° |
| 2026-05-07 16:08 | 48.68996 | 9.20863 | 1301 ft | 22 kts | 74° |
| 2026-05-07 16:08 | 48.69044 | 9.21108 | 1294 ft | 26 kts | 72° |
| 2026-05-07 16:08 | 48.69097 | 9.21385 | 1289 ft | 29 kts | 76° |
| 2026-05-07 16:08 | 48.69155 | 9.21696 | 1283 ft | 32 kts | 73° |
| 2026-05-07 16:09 | 48.69217 | 9.22007 | 1277 ft | 28 kts | 73° |
| 2026-05-07 16:09 | 48.69268 | 9.22291 | 1273 ft | 27 kts | 78° |
| 2026-05-07 16:09 | 48.69324 | 9.22585 | 1261 ft | 30 kts | 73° |
| 2026-05-07 16:09 | 48.69366 | 9.22808 | 1256 ft | 19 kts | 74° |
| 2026-05-07 16:10 | 48.69405 | 9.23012 | 1252 ft | 19 kts | 73° |
| 2026-05-07 16:10 | 48.69369 | 9.23134 | 1250 ft | 9 kts | 147° |
| 2026-05-07 16:10 | 48.69317 | 9.23155 | 1250 ft | 7 kts | 180° |
| 2026-05-07 16:10 | 48.69286 | 9.23135 | 1250 ft | 3 kts | 221° |
| 2026-05-07 16:11 | 48.69276 | 9.23121 | 1251 ft | 1 kts | 226° |
| 2026-05-07 16:11 | 48.69264 | 9.23101 | 1251 ft | 0 kts | 226° |
| 2026-05-07 16:12 | 48.69234 | 9.23054 | 1252 ft | 11 kts | 227° |
| 2026-05-07 16:12 | 48.69190 | 9.22992 | 1254 ft | 7 kts | 220° |
| 2026-05-07 16:12 | 48.69152 | 9.22952 | 1255 ft | 11 kts | 214° |
| 2026-05-07 16:12 | 48.69113 | 9.22851 | 1257 ft | 11 kts | 253° |
| 2026-05-07 16:13 | 48.69063 | 9.22598 | 1263 ft | 52 kts | 253° |
| 2026-05-07 16:13 | 48.68908 | 9.21677 | 1291 ft | 123 kts | 249° |
| 2026-05-07 16:13 | 48.68609 | 9.20219 | 1603 ft | 155 kts | 257° |
| 2026-05-07 16:13 | 48.68285 | 9.18655 | 2566 ft | 155 kts | 255° |
| 2026-05-07 16:14 | 48.67950 | 9.17045 | 3395 ft | 165 kts | 255° |
| 2026-05-07 16:14 | 48.67616 | 9.15339 | 3909 ft | 178 kts | 257° |
| 2026-05-07 16:14 | 48.67261 | 9.13455 | 4188 ft | 199 kts | 256° |
| 2026-05-07 16:14 | 48.66945 | 9.11281 | 4448 ft | 223 kts | 272° |
| 2026-05-07 16:15 | 48.67498 | 9.09049 | 5030 ft | 236 kts | 305° |
| 2026-05-07 16:15 | 48.68564 | 9.07172 | 5837 ft | 241 kts | 319° |
| 2026-05-07 16:15 | 48.70099 | 9.05976 | 6447 ft | 261 kts | 341° |
| 2026-05-07 16:15 | 48.71896 | 9.05169 | 7105 ft | 272 kts | 340° |
| 2026-05-07 16:16 | 48.73700 | 9.04298 | 7925 ft | 276 kts | 339° |
| 2026-05-07 16:16 | 48.75541 | 9.03372 | 8784 ft | 280 kts | 339° |
| 2026-05-07 16:16 | 48.77414 | 9.02427 | 9650 ft | 285 kts | 342° |
| 2026-05-07 16:16 | 48.79405 | 9.02017 | 10441 ft | 293 kts | 359° |
| 2026-05-07 16:17 | 48.81485 | 9.02450 | 10886 ft | 314 kts | 11° |
| 2026-05-07 16:17 | 48.83680 | 9.03055 | 11114 ft | 336 kts | 7° |
| 2026-05-07 16:17 | 48.86084 | 9.03529 | 11389 ft | 355 kts | 5° |
| 2026-05-07 16:17 | 48.88572 | 9.03948 | 12001 ft | 362 kts | 5° |
| 2026-05-07 16:18 | 48.91102 | 9.04369 | 12738 ft | 366 kts | 5° |
| 2026-05-07 16:18 | 48.93649 | 9.04818 | 13495 ft | 370 kts | 5° |
| 2026-05-07 16:18 | 48.96219 | 9.05300 | 14182 ft | 373 kts | 6° |
| 2026-05-07 16:18 | 48.98790 | 9.05802 | 14818 ft | 377 kts | 6° |
| 2026-05-07 16:19 | 49.01407 | 9.06332 | 15441 ft | 381 kts | 6° |
| 2026-05-07 16:19 | 49.04046 | 9.06877 | 16053 ft | 384 kts | 6° |
| 2026-05-07 16:19 | 49.06717 | 9.07426 | 16661 ft | 388 kts | 6° |
| 2026-05-07 16:19 | 49.09409 | 9.07978 | 16970 ft | 391 kts | 6° |
| 2026-05-07 16:20 | 49.12104 | 9.08521 | 17041 ft | 403 kts | 6° |
| 2026-05-07 16:20 | 49.14951 | 9.09092 | 17038 ft | 419 kts | 6° |
| 2026-05-07 16:20 | 49.17863 | 9.09680 | 17037 ft | 423 kts | 6° |
| 2026-05-07 16:20 | 49.20790 | 9.10275 | 17039 ft | 425 kts | 6° |
| 2026-05-07 16:21 | 49.23720 | 9.10873 | 17041 ft | 425 kts | 6° |
| 2026-05-07 16:21 | 49.26663 | 9.11474 | 17043 ft | 425 kts | 6° |
| 2026-05-07 16:21 | 49.29604 | 9.12073 | 17039 ft | 425 kts | 6° |
| 2026-05-07 16:21 | 49.32482 | 9.12660 | 17043 ft | 425 kts | 6° |
| 2026-05-07 16:22 | 49.35433 | 9.13260 | 17047 ft | 425 kts | 6° |
| 2026-05-07 16:22 | 49.38372 | 9.13859 | 17044 ft | 424 kts | 6° |
| 2026-05-07 16:22 | 49.41298 | 9.14456 | 16952 ft | 418 kts | 6° |
| 2026-05-07 16:22 | 49.44150 | 9.15041 | 16514 ft | 409 kts | 6° |
| 2026-05-07 16:23 | 49.46956 | 9.15619 | 16085 ft | 401 kts | 6° |
| 2026-05-07 16:23 | 49.49682 | 9.16183 | 15661 ft | 397 kts | 6° |
| 2026-05-07 16:23 | 49.52418 | 9.16750 | 15236 ft | 394 kts | 6° |
| 2026-05-07 16:23 | 49.55141 | 9.17317 | 14816 ft | 391 kts | 6° |
| 2026-05-07 16:24 | 49.57800 | 9.17870 | 14410 ft | 388 kts | 6° |
| 2026-05-07 16:24 | 49.60468 | 9.18422 | 14002 ft | 386 kts | 6° |
| 2026-05-07 16:24 | 49.63131 | 9.18808 | 13565 ft | 381 kts | 356° |
| 2026-05-07 16:24 | 49.65729 | 9.18111 | 13090 ft | 377 kts | 345° |
| 2026-05-07 16:25 | 49.68265 | 9.17100 | 12669 ft | 375 kts | 344° |
| 2026-05-07 16:25 | 49.70756 | 9.16093 | 12236 ft | 373 kts | 344° |
| 2026-05-07 16:25 | 49.73260 | 9.15083 | 11801 ft | 371 kts | 344° |
| 2026-05-07 16:25 | 49.75757 | 9.14074 | 11336 ft | 367 kts | 344° |
| 2026-05-07 16:26 | 49.78222 | 9.13079 | 10774 ft | 364 kts | 344° |
| 2026-05-07 16:26 | 49.80663 | 9.12091 | 10325 ft | 358 kts | 344° |
| 2026-05-07 16:26 | 49.83056 | 9.11124 | 9827 ft | 353 kts | 344° |
| 2026-05-07 16:26 | 49.84635 | 9.10487 | 9473 ft | 349 kts | 344° |
| 2026-05-07 16:27 | 49.87743 | 9.09237 | 8697 ft | 343 kts | 344° |
| 2026-05-07 16:27 | 49.90039 | 9.08316 | 8240 ft | 337 kts | 344° |
| 2026-05-07 16:27 | 49.92195 | 9.07454 | 7806 ft | 332 kts | 344° |
| 2026-05-07 16:27 | 49.94288 | 9.06620 | 7437 ft | 326 kts | 344° |
| 2026-05-07 16:28 | 49.96455 | 9.05765 | 7193 ft | 315 kts | 344° |
| 2026-05-07 16:28 | 49.98549 | 9.04943 | 7008 ft | 304 kts | 344° |
| 2026-05-07 16:28 | 50.00562 | 9.04165 | 6966 ft | 289 kts | 344° |
| 2026-05-07 16:28 | 50.02448 | 9.03436 | 6972 ft | 276 kts | 344° |
| 2026-05-07 16:29 | 50.04299 | 9.02722 | 6971 ft | 274 kts | 344° |
| 2026-05-07 16:29 | 50.06161 | 9.02002 | 6972 ft | 274 kts | 344° |
| 2026-05-07 16:29 | 50.08019 | 9.01303 | 6972 ft | 274 kts | 347° |
| 2026-05-07 16:29 | 50.09883 | 9.01393 | 6969 ft | 264 kts | 15° |
| 2026-05-07 16:30 | 50.11394 | 9.02786 | 6963 ft | 253 kts | 46° |
| 2026-05-07 16:30 | 50.12231 | 9.05109 | 6953 ft | 242 kts | 78° |
| 2026-05-07 16:30 | 50.12339 | 9.07665 | 6947 ft | 233 kts | 92° |
| 2026-05-07 16:30 | 50.12271 | 9.10189 | 6928 ft | 231 kts | 94° |
| 2026-05-07 16:31 | 50.12184 | 9.12660 | 6735 ft | 230 kts | 94° |
| 2026-05-07 16:31 | 50.12093 | 9.15163 | 6490 ft | 230 kts | 94° |
| 2026-05-07 16:31 | 50.12002 | 9.17650 | 6268 ft | 229 kts | 94° |
| 2026-05-07 16:31 | 50.11909 | 9.20134 | 6116 ft | 228 kts | 94° |
| 2026-05-07 16:32 | 50.11815 | 9.22574 | 5827 ft | 227 kts | 94° |
| 2026-05-07 16:32 | 50.11750 | 9.24236 | 5604 ft | 227 kts | 94° |
| 2026-05-07 16:32 | 50.11655 | 9.26659 | 5282 ft | 226 kts | 94° |
| 2026-05-07 16:32 | 50.11554 | 9.29096 | 5003 ft | 225 kts | 94° |
| 2026-05-07 16:33 | 50.11453 | 9.31518 | 4723 ft | 223 kts | 93° |
| 2026-05-07 16:33 | 50.11667 | 9.33884 | 4430 ft | 221 kts | 62° |
| 2026-05-07 16:33 | 50.12665 | 9.35632 | 4174 ft | 215 kts | 26° |
| 2026-05-07 16:33 | 50.14063 | 9.36124 | 4026 ft | 207 kts | 349° |
| 2026-05-07 16:34 | 50.15344 | 9.35224 | 4009 ft | 203 kts | 313° |
| 2026-05-07 16:34 | 50.16047 | 9.33356 | 4019 ft | 202 kts | 288° |
| 2026-05-07 16:34 | 50.16451 | 9.31260 | 4012 ft | 201 kts | 284° |
| 2026-05-07 16:34 | 50.16814 | 9.29139 | 4013 ft | 202 kts | 284° |
| 2026-05-07 16:35 | 50.17166 | 9.27035 | 4007 ft | 205 kts | 284° |
| 2026-05-07 16:35 | 50.17541 | 9.24781 | 4014 ft | 219 kts | 284° |
| 2026-05-07 16:35 | 50.17931 | 9.22460 | 4001 ft | 222 kts | 284° |
| 2026-05-07 16:35 | 50.18307 | 9.20112 | 3871 ft | 222 kts | 279° |
| 2026-05-07 16:36 | 50.18148 | 9.17743 | 3863 ft | 222 kts | 248° |
| 2026-05-07 16:36 | 50.17482 | 9.15586 | 3865 ft | 223 kts | 249° |
| 2026-05-07 16:36 | 50.16927 | 9.13327 | 3871 ft | 223 kts | 250° |
| 2026-05-07 16:36 | 50.16357 | 9.11080 | 3866 ft | 222 kts | 250° |
| 2026-05-07 16:37 | 50.15813 | 9.08814 | 3863 ft | 223 kts | 250° |
| 2026-05-07 16:37 | 50.15280 | 9.06533 | 3881 ft | 223 kts | 251° |
| 2026-05-07 16:37 | 50.14754 | 9.04276 | 3886 ft | 225 kts | 250° |
| 2026-05-07 16:37 | 50.14217 | 9.01973 | 3884 ft | 225 kts | 251° |
| 2026-05-07 16:38 | 50.13686 | 8.99698 | 3890 ft | 223 kts | 250° |
| 2026-05-07 16:38 | 50.13154 | 8.97422 | 3902 ft | 223 kts | 250° |
| 2026-05-07 16:38 | 50.12621 | 8.95145 | 3912 ft | 222 kts | 251° |
| 2026-05-07 16:38 | 50.12089 | 8.92876 | 3917 ft | 223 kts | 251° |
| 2026-05-07 16:39 | 50.11564 | 8.90639 | 3932 ft | 223 kts | 250° |
| 2026-05-07 16:39 | 50.11031 | 8.88368 | 3941 ft | 222 kts | 250° |
| 2026-05-07 16:39 | 50.10514 | 8.86171 | 3947 ft | 209 kts | 250° |
| 2026-05-07 16:39 | 50.10027 | 8.84098 | 3861 ft | 200 kts | 250° |
| 2026-05-07 16:40 | 50.09522 | 8.81955 | 3645 ft | 198 kts | 251° |
| 2026-05-07 16:40 | 50.09081 | 8.80082 | 3410 ft | 193 kts | 250° |
| 2026-05-07 16:40 | 50.08618 | 8.78122 | 3150 ft | 186 kts | 251° |
| 2026-05-07 16:40 | 50.08182 | 8.76275 | 2931 ft | 182 kts | 251° |
| 2026-05-07 16:41 | 50.07740 | 8.74403 | 2691 ft | 182 kts | 252° |
| 2026-05-07 16:41 | 50.07300 | 8.72547 | 2450 ft | 182 kts | 253° |
| 2026-05-07 16:41 | 50.06864 | 8.70704 | 2208 ft | 179 kts | 252° |
| 2026-05-07 16:41 | 50.06447 | 8.68943 | 1997 ft | 172 kts | 253° |
| 2026-05-07 16:42 | 50.06060 | 8.67211 | 1751 ft | 164 kts | 260° |
| 2026-05-07 16:42 | 50.05934 | 8.65553 | 1571 ft | 153 kts | 268° |
| 2026-05-07 16:42 | 50.05736 | 8.63924 | 1360 ft | 144 kts | 253° |
| 2026-05-07 16:42 | 50.05406 | 8.62495 | 1100 ft | 139 kts | 252° |
| 2026-05-07 16:43 | 50.05079 | 8.61077 | 808 ft | 136 kts | 249° |
| 2026-05-07 16:43 | 50.04752 | 8.59713 | 580 ft | 136 kts | 249° |
| 2026-05-07 16:43 | 50.04425 | 8.58330 | 392 ft | 135 kts | 248° |
| 2026-05-07 16:43 | 50.04132 | 8.57104 | 364 ft | 101 kts | 250° |
| 2026-05-07 16:44 | 50.03938 | 8.56290 | 354 ft | 54 kts | 250° |
| 2026-05-07 16:44 | 50.03883 | 8.55842 | 353 ft | 30 kts | 280° |
| 2026-05-07 16:44 | 50.03921 | 8.55641 | 351 ft | 3 kts | 326° |
| 2026-05-07 16:45 | 50.03956 | 8.55646 | 357 ft | 14 kts | 15° |
| 2026-05-07 16:46 | 50.04008 | 8.55784 | 351 ft | 17 kts | 72° |
| 2026-05-07 16:46 | 50.04047 | 8.55951 | 354 ft | 16 kts | 69° |
| 2026-05-07 16:46 | 50.04085 | 8.56104 | 357 ft | 14 kts | 69° |
| 2026-05-07 16:46 | 50.04117 | 8.56231 | 355 ft | 12 kts | 68° |
| 2026-05-07 16:47 | 50.04144 | 8.56351 | 360 ft | 14 kts | 71° |
| 2026-05-07 16:47 | 50.04188 | 8.56539 | 363 ft | 20 kts | 69° |
| 2026-05-07 16:47 | 50.04236 | 8.56739 | 360 ft | 19 kts | 71° |
| 2026-05-07 16:47 | 50.04281 | 8.56927 | 359 ft | 18 kts | 69° |
| 2026-05-07 16:48 | 50.04323 | 8.57102 | 361 ft | 16 kts | 70° |
| 2026-05-07 16:48 | 50.04361 | 8.57263 | 362 ft | 19 kts | 70° |
| 2026-05-07 16:48 | 50.04408 | 8.57466 | 363 ft | 21 kts | 69° |
| 2026-05-07 16:48 | 50.04459 | 8.57673 | 367 ft | 20 kts | 70° |
| 2026-05-07 16:49 | 50.04508 | 8.57882 | 366 ft | 21 kts | 69° |
| 2026-05-07 16:49 | 50.04563 | 8.58103 | 364 ft | 23 kts | 71° |
| 2026-05-07 16:49 | 50.04616 | 8.58327 | 371 ft | 22 kts | 69° |
| 2026-05-07 16:49 | 50.04669 | 8.58552 | 371 ft | 23 kts | 67° |
| 2026-05-07 16:50 | 50.04731 | 8.58791 | 374 ft | 25 kts | 67° |
| 2026-05-07 16:50 | 50.04787 | 8.59016 | 368 ft | 16 kts | 70° |
| 2026-05-07 16:50 | 50.04821 | 8.59148 | 370 ft | 7 kts | 49° |
| 2026-05-07 16:50 | 50.04851 | 8.59137 | 370 ft | 3 kts | 342° |
| 2026-05-07 16:51 | 50.04877 | 8.59123 | 369 ft | 3 kts | 340° |
| 2026-05-07 16:51 | 50.04901 | 8.59110 | 371 ft | 2 kts | 339° |
| 2026-05-07 16:51 | 50.04902 | 8.59109 | 371 ft | 0 kts | 340° |